sensor_id;sensor_type;location;lat;lon;timestamp;P1;durP1;ratioP1;P2;durP2;ratioP2
28547;SDS011;68292;49.600;8.746;2024-02-23T00:01:24;3.67;;;1.20;;
28547;SDS011;68292;49.600;8.746;2024-02-23T00:03:52;1.77;;;1.20;;
28547;SDS011;68292;49.600;8.746;2024-02-23T00:06:22;0.93;;;0.90;;
28547;SDS011;68292;49.600;8.746;2024-02-23T00:08:55;0.93;;;0.80;;
28547;SDS011;68292;49.600;8.746;2024-02-23T00:11:24;1.17;;;1.07;;
28547;SDS011;68292;49.600;8.746;2024-02-23T00:13:54;1.40;;;0.80;;
28547;SDS011;68292;49.600;8.746;2024-02-23T00:16:23;1.17;;;1.00;;
28547;SDS011;68292;49.600;8.746;2024-02-23T00:18:52;0.87;;;0.87;;
28547;SDS011;68292;49.600;8.746;2024-02-23T00:21:21;2.30;;;1.00;;
28547;SDS011;68292;49.600;8.746;2024-02-23T00:23:51;0.93;;;0.93;;
28547;SDS011;68292;49.600;8.746;2024-02-23T00:26:21;1.07;;;1.03;;
28547;SDS011;68292;49.600;8.746;2024-02-23T00:28:50;1.00;;;1.00;;
28547;SDS011;68292;49.600;8.746;2024-02-23T00:31:19;1.23;;;0.90;;
28547;SDS011;68292;49.600;8.746;2024-02-23T00:33:48;1.90;;;1.00;;
28547;SDS011;68292;49.600;8.746;2024-02-23T00:36:16;1.27;;;1.07;;
28547;SDS011;68292;49.600;8.746;2024-02-23T00:38:45;1.10;;;0.70;;
28547;SDS011;68292;49.600;8.746;2024-02-23T00:41:14;1.53;;;0.90;;
28547;SDS011;68292;49.600;8.746;2024-02-23T00:43:44;1.20;;;1.10;;
28547;SDS011;68292;49.600;8.746;2024-02-23T00:46:14;3.03;;;0.83;;
28547;SDS011;68292;49.600;8.746;2024-02-23T00:48:43;0.97;;;0.70;;
28547;SDS011;68292;49.600;8.746;2024-02-23T00:51:11;1.80;;;0.87;;
28547;SDS011;68292;49.600;8.746;2024-02-23T00:53:40;1.60;;;0.80;;
28547;SDS011;68292;49.600;8.746;2024-02-23T00:56:09;0.70;;;0.70;;
28547;SDS011;68292;49.600;8.746;2024-02-23T00:58:37;0.73;;;0.67;;
28547;SDS011;68292;49.600;8.746;2024-02-23T01:01:08;1.37;;;0.83;;
28547;SDS011;68292;49.600;8.746;2024-02-23T01:03:36;2.53;;;1.00;;
28547;SDS011;68292;49.600;8.746;2024-02-23T01:06:05;1.10;;;0.97;;
28547;SDS011;68292;49.600;8.746;2024-02-23T01:08:34;1.50;;;0.90;;
28547;SDS011;68292;49.600;8.746;2024-02-23T01:11:03;2.17;;;1.30;;
28547;SDS011;68292;49.600;8.746;2024-02-23T01:13:32;1.43;;;1.00;;
28547;SDS011;68292;49.600;8.746;2024-02-23T01:16:01;3.13;;;1.20;;
28547;SDS011;68292;49.600;8.746;2024-02-23T01:18:31;1.77;;;0.90;;
28547;SDS011;68292;49.600;8.746;2024-02-23T01:20:59;1.83;;;1.07;;
28547;SDS011;68292;49.600;8.746;2024-02-23T01:23:28;1.73;;;1.13;;
28547;SDS011;68292;49.600;8.746;2024-02-23T01:25:57;1.30;;;1.20;;
28547;SDS011;68292;49.600;8.746;2024-02-23T01:28:26;3.07;;;1.43;;
28547;SDS011;68292;49.600;8.746;2024-02-23T01:30:55;2.00;;;1.17;;
28547;SDS011;68292;49.600;8.746;2024-02-23T01:33:24;1.43;;;1.20;;
28547;SDS011;68292;49.600;8.746;2024-02-23T01:35:54;1.83;;;1.00;;
28547;SDS011;68292;49.600;8.746;2024-02-23T01:38:25;1.57;;;1.03;;
28547;SDS011;68292;49.600;8.746;2024-02-23T01:40:58;2.60;;;1.23;;
28547;SDS011;68292;49.600;8.746;2024-02-23T01:43:27;1.77;;;1.37;;
28547;SDS011;68292;49.600;8.746;2024-02-23T01:45:55;2.90;;;1.00;;
28547;SDS011;68292;49.600;8.746;2024-02-23T01:48:24;1.23;;;1.00;;
28547;SDS011;68292;49.600;8.746;2024-02-23T01:50:54;4.60;;;1.20;;
28547;SDS011;68292;49.600;8.746;2024-02-23T01:53:24;2.70;;;1.50;;
28547;SDS011;68292;49.600;8.746;2024-02-23T01:55:54;2.40;;;1.00;;
28547;SDS011;68292;49.600;8.746;2024-02-23T01:58:23;3.23;;;1.30;;
28547;SDS011;68292;49.600;8.746;2024-02-23T02:00:52;2.83;;;1.10;;
28547;SDS011;68292;49.600;8.746;2024-02-23T02:03:21;1.43;;;1.00;;
28547;SDS011;68292;49.600;8.746;2024-02-23T02:05:50;1.00;;;0.90;;
28547;SDS011;68292;49.600;8.746;2024-02-23T02:08:21;0.60;;;0.50;;
28547;SDS011;68292;49.600;8.746;2024-02-23T02:10:51;0.80;;;0.70;;
28547;SDS011;68292;49.600;8.746;2024-02-23T02:13:19;0.90;;;0.77;;
28547;SDS011;68292;49.600;8.746;2024-02-23T02:15:48;1.23;;;0.73;;
28547;SDS011;68292;49.600;8.746;2024-02-23T02:18:17;1.77;;;1.10;;
28547;SDS011;68292;49.600;8.746;2024-02-23T02:20:51;1.90;;;0.97;;
28547;SDS011;68292;49.600;8.746;2024-02-23T02:23:23;0.77;;;0.70;;
28547;SDS011;68292;49.600;8.746;2024-02-23T02:25:53;1.97;;;1.00;;
28547;SDS011;68292;49.600;8.746;2024-02-23T02:28:22;1.23;;;0.80;;
28547;SDS011;68292;49.600;8.746;2024-02-23T02:30:52;1.00;;;0.80;;
28547;SDS011;68292;49.600;8.746;2024-02-23T02:33:21;0.70;;;0.70;;
28547;SDS011;68292;49.600;8.746;2024-02-23T02:35:50;0.73;;;0.70;;
28547;SDS011;68292;49.600;8.746;2024-02-23T02:38:19;1.03;;;0.80;;
28547;SDS011;68292;49.600;8.746;2024-02-23T02:40:49;0.90;;;0.60;;
28547;SDS011;68292;49.600;8.746;2024-02-23T02:43:18;0.93;;;0.70;;
28547;SDS011;68292;49.600;8.746;2024-02-23T02:45:47;1.47;;;0.83;;
28547;SDS011;68292;49.600;8.746;2024-02-23T02:48:15;0.90;;;0.90;;
28547;SDS011;68292;49.600;8.746;2024-02-23T02:50:44;1.30;;;0.90;;
28547;SDS011;68292;49.600;8.746;2024-02-23T02:53:14;0.87;;;0.87;;
28547;SDS011;68292;49.600;8.746;2024-02-23T02:55:43;3.47;;;1.10;;
28547;SDS011;68292;49.600;8.746;2024-02-23T02:58:14;1.37;;;0.90;;
28547;SDS011;68292;49.600;8.746;2024-02-23T03:00:42;1.73;;;1.00;;
28547;SDS011;68292;49.600;8.746;2024-02-23T03:03:11;1.47;;;1.00;;
28547;SDS011;68292;49.600;8.746;2024-02-23T03:05:40;1.40;;;0.80;;
28547;SDS011;68292;49.600;8.746;2024-02-23T03:08:09;0.73;;;0.73;;
28547;SDS011;68292;49.600;8.746;2024-02-23T03:10:37;2.10;;;0.90;;
28547;SDS011;68292;49.600;8.746;2024-02-23T03:13:06;1.50;;;0.90;;
28547;SDS011;68292;49.600;8.746;2024-02-23T03:15:36;0.77;;;0.70;;
28547;SDS011;68292;49.600;8.746;2024-02-23T03:18:05;1.30;;;1.00;;
28547;SDS011;68292;49.600;8.746;2024-02-23T03:20:36;2.07;;;0.90;;
28547;SDS011;68292;49.600;8.746;2024-02-23T03:23:05;1.17;;;1.00;;
28547;SDS011;68292;49.600;8.746;2024-02-23T03:25:33;1.30;;;1.00;;
28547;SDS011;68292;49.600;8.746;2024-02-23T03:28:02;1.77;;;0.87;;
28547;SDS011;68292;49.600;8.746;2024-02-23T03:30:31;0.90;;;0.90;;
28547;SDS011;68292;49.600;8.746;2024-02-23T03:33:04;1.90;;;1.03;;
28547;SDS011;68292;49.600;8.746;2024-02-23T03:35:33;1.43;;;0.97;;
28547;SDS011;68292;49.600;8.746;2024-02-23T03:38:02;1.67;;;1.40;;
28547;SDS011;68292;49.600;8.746;2024-02-23T03:40:30;1.30;;;1.07;;
28547;SDS011;68292;49.600;8.746;2024-02-23T03:43:00;1.43;;;1.00;;
28547;SDS011;68292;49.600;8.746;2024-02-23T03:45:29;2.67;;;1.00;;
28547;SDS011;68292;49.600;8.746;2024-02-23T03:47:58;0.93;;;0.93;;
28547;SDS011;68292;49.600;8.746;2024-02-23T03:50:29;1.90;;;1.00;;
28547;SDS011;68292;49.600;8.746;2024-02-23T03:52:58;1.33;;;0.83;;
28547;SDS011;68292;49.600;8.746;2024-02-23T03:55:27;1.83;;;1.10;;
28547;SDS011;68292;49.600;8.746;2024-02-23T03:57:55;1.67;;;0.97;;
28547;SDS011;68292;49.600;8.746;2024-02-23T04:00:24;1.80;;;1.10;;
28547;SDS011;68292;49.600;8.746;2024-02-23T04:02:53;0.77;;;0.77;;
28547;SDS011;68292;49.600;8.746;2024-02-23T04:05:24;2.07;;;1.10;;
28547;SDS011;68292;49.600;8.746;2024-02-23T04:07:54;3.03;;;1.27;;
28547;SDS011;68292;49.600;8.746;2024-02-23T04:10:23;2.50;;;0.93;;
28547;SDS011;68292;49.600;8.746;2024-02-23T04:12:51;1.83;;;1.10;;
28547;SDS011;68292;49.600;8.746;2024-02-23T04:15:20;1.70;;;1.13;;
28547;SDS011;68292;49.600;8.746;2024-02-23T04:17:48;1.30;;;0.90;;
28547;SDS011;68292;49.600;8.746;2024-02-23T04:20:17;1.97;;;1.00;;
28547;SDS011;68292;49.600;8.746;2024-02-23T04:22:46;2.37;;;1.10;;
28547;SDS011;68292;49.600;8.746;2024-02-23T04:25:16;0.97;;;0.90;;
28547;SDS011;68292;49.600;8.746;2024-02-23T04:27:45;1.03;;;0.93;;
28547;SDS011;68292;49.600;8.746;2024-02-23T04:30:14;2.07;;;1.07;;
28547;SDS011;68292;49.600;8.746;2024-02-23T04:32:42;1.93;;;1.10;;
28547;SDS011;68292;49.600;8.746;2024-02-23T04:35:11;2.57;;;1.00;;
28547;SDS011;68292;49.600;8.746;2024-02-23T04:37:42;2.57;;;1.20;;
28547;SDS011;68292;49.600;8.746;2024-02-23T04:40:12;2.07;;;1.10;;
28547;SDS011;68292;49.600;8.746;2024-02-23T04:42:44;1.93;;;1.00;;
28547;SDS011;68292;49.600;8.746;2024-02-23T04:45:14;1.10;;;1.00;;
28547;SDS011;68292;49.600;8.746;2024-02-23T04:47:42;2.90;;;1.00;;
28547;SDS011;68292;49.600;8.746;2024-02-23T04:50:13;0.90;;;0.80;;
28547;SDS011;68292;49.600;8.746;2024-02-23T04:52:42;3.00;;;1.03;;
28547;SDS011;68292;49.600;8.746;2024-02-23T04:55:11;2.93;;;1.17;;
28547;SDS011;68292;49.600;8.746;2024-02-23T04:57:40;2.20;;;1.00;;
28547;SDS011;68292;49.600;8.746;2024-02-23T05:00:11;1.00;;;0.90;;
28547;SDS011;68292;49.600;8.746;2024-02-23T05:02:40;1.10;;;1.00;;
28547;SDS011;68292;49.600;8.746;2024-02-23T05:05:09;1.30;;;0.93;;
28547;SDS011;68292;49.600;8.746;2024-02-23T05:07:37;0.90;;;0.90;;
28547;SDS011;68292;49.600;8.746;2024-02-23T05:10:06;1.90;;;1.10;;
28547;SDS011;68292;49.600;8.746;2024-02-23T05:12:36;1.63;;;1.13;;
28547;SDS011;68292;49.600;8.746;2024-02-23T05:15:04;1.50;;;1.00;;
28547;SDS011;68292;49.600;8.746;2024-02-23T05:17:36;2.50;;;1.30;;
28547;SDS011;68292;49.600;8.746;2024-02-23T05:20:05;2.30;;;1.30;;
28547;SDS011;68292;49.600;8.746;2024-02-23T05:22:37;2.97;;;1.00;;
28547;SDS011;68292;49.600;8.746;2024-02-23T05:25:06;1.27;;;1.17;;
28547;SDS011;68292;49.600;8.746;2024-02-23T05:27:35;1.43;;;1.03;;
28547;SDS011;68292;49.600;8.746;2024-02-23T05:30:05;1.40;;;1.10;;
28547;SDS011;68292;49.600;8.746;2024-02-23T05:32:36;1.17;;;1.03;;
28547;SDS011;68292;49.600;8.746;2024-02-23T05:35:05;2.93;;;1.10;;
28547;SDS011;68292;49.600;8.746;2024-02-23T05:37:35;2.13;;;1.10;;
28547;SDS011;68292;49.600;8.746;2024-02-23T05:40:05;1.90;;;1.00;;
28547;SDS011;68292;49.600;8.746;2024-02-23T05:42:37;1.33;;;1.00;;
28547;SDS011;68292;49.600;8.746;2024-02-23T05:45:06;1.20;;;1.07;;
28547;SDS011;68292;49.600;8.746;2024-02-23T05:47:38;5.87;;;4.40;;
28547;SDS011;68292;49.600;8.746;2024-02-23T05:50:12;3.57;;;3.00;;
28547;SDS011;68292;49.600;8.746;2024-02-23T05:52:41;2.80;;;2.10;;
28547;SDS011;68292;49.600;8.746;2024-02-23T05:55:10;2.27;;;1.60;;
28547;SDS011;68292;49.600;8.746;2024-02-23T05:57:38;2.67;;;1.93;;
28547;SDS011;68292;49.600;8.746;2024-02-23T06:00:08;3.20;;;2.30;;
28547;SDS011;68292;49.600;8.746;2024-02-23T06:02:41;2.13;;;1.93;;
28547;SDS011;68292;49.600;8.746;2024-02-23T06:05:10;2.33;;;2.13;;
28547;SDS011;68292;49.600;8.746;2024-02-23T06:07:40;5.13;;;3.07;;
28547;SDS011;68292;49.600;8.746;2024-02-23T06:10:09;3.97;;;3.67;;
28547;SDS011;68292;49.600;8.746;2024-02-23T06:12:38;3.40;;;2.30;;
28547;SDS011;68292;49.600;8.746;2024-02-23T06:15:07;2.53;;;2.33;;
28547;SDS011;68292;49.600;8.746;2024-02-23T06:17:37;3.00;;;1.93;;
28547;SDS011;68292;49.600;8.746;2024-02-23T06:20:09;1.63;;;1.53;;
28547;SDS011;68292;49.600;8.746;2024-02-23T06:22:39;2.37;;;1.20;;
28547;SDS011;68292;49.600;8.746;2024-02-23T06:25:08;2.03;;;1.40;;
28547;SDS011;68292;49.600;8.746;2024-02-23T06:27:38;1.40;;;1.10;;
28547;SDS011;68292;49.600;8.746;2024-02-23T06:30:07;3.50;;;1.10;;
28547;SDS011;68292;49.600;8.746;2024-02-23T06:32:38;4.53;;;1.47;;
28547;SDS011;68292;49.600;8.746;2024-02-23T06:35:09;11.63;;;9.57;;
28547;SDS011;68292;49.600;8.746;2024-02-23T06:37:39;7.43;;;6.67;;
28547;SDS011;68292;49.600;8.746;2024-02-23T06:40:08;3.60;;;3.30;;
28547;SDS011;68292;49.600;8.746;2024-02-23T06:42:37;4.00;;;3.10;;
28547;SDS011;68292;49.600;8.746;2024-02-23T06:45:06;4.10;;;3.70;;
28547;SDS011;68292;49.600;8.746;2024-02-23T06:47:36;3.47;;;2.43;;
28547;SDS011;68292;49.600;8.746;2024-02-23T06:50:06;3.47;;;2.07;;
28547;SDS011;68292;49.600;8.746;2024-02-23T06:52:37;1.90;;;1.60;;
28547;SDS011;68292;49.600;8.746;2024-02-23T06:55:07;4.20;;;1.60;;
28547;SDS011;68292;49.600;8.746;2024-02-23T06:57:37;1.77;;;1.20;;
28547;SDS011;68292;49.600;8.746;2024-02-23T07:00:06;2.03;;;1.67;;
28547;SDS011;68292;49.600;8.746;2024-02-23T07:02:36;1.23;;;1.13;;
28547;SDS011;68292;49.600;8.746;2024-02-23T07:05:05;1.23;;;1.10;;
28547;SDS011;68292;49.600;8.746;2024-02-23T07:07:37;3.00;;;1.50;;
28547;SDS011;68292;49.600;8.746;2024-02-23T07:10:07;2.10;;;1.40;;
28547;SDS011;68292;49.600;8.746;2024-02-23T07:12:37;2.40;;;1.53;;
28547;SDS011;68292;49.600;8.746;2024-02-23T07:15:06;3.30;;;1.50;;
28547;SDS011;68292;49.600;8.746;2024-02-23T07:17:35;2.30;;;1.20;;
28547;SDS011;68292;49.600;8.746;2024-02-23T07:20:04;4.87;;;4.37;;
28547;SDS011;68292;49.600;8.746;2024-02-23T07:22:34;4.70;;;3.50;;
28547;SDS011;68292;49.600;8.746;2024-02-23T07:25:05;4.47;;;2.27;;
28547;SDS011;68292;49.600;8.746;2024-02-23T07:27:34;2.20;;;1.53;;
28547;SDS011;68292;49.600;8.746;2024-02-23T07:30:03;2.67;;;1.90;;
28547;SDS011;68292;49.600;8.746;2024-02-23T07:32:34;3.00;;;1.67;;
28547;SDS011;68292;49.600;8.746;2024-02-23T07:35:03;1.70;;;1.33;;
28547;SDS011;68292;49.600;8.746;2024-02-23T07:37:32;2.60;;;1.47;;
28547;SDS011;68292;49.600;8.746;2024-02-23T07:40:01;1.70;;;1.60;;
28547;SDS011;68292;49.600;8.746;2024-02-23T07:42:33;1.60;;;1.43;;
28547;SDS011;68292;49.600;8.746;2024-02-23T07:45:03;2.60;;;1.53;;
28547;SDS011;68292;49.600;8.746;2024-02-23T07:47:31;1.93;;;1.40;;
28547;SDS011;68292;49.600;8.746;2024-02-23T07:50:00;2.30;;;1.37;;
28547;SDS011;68292;49.600;8.746;2024-02-23T07:52:29;1.73;;;1.30;;
28547;SDS011;68292;49.600;8.746;2024-02-23T07:54:57;2.07;;;1.07;;
28547;SDS011;68292;49.600;8.746;2024-02-23T07:57:29;3.30;;;1.60;;
28547;SDS011;68292;49.600;8.746;2024-02-23T07:59:59;3.30;;;1.30;;
28547;SDS011;68292;49.600;8.746;2024-02-23T08:02:37;4.17;;;1.67;;
28547;SDS011;68292;49.600;8.746;2024-02-23T08:05:06;2.97;;;1.57;;
28547;SDS011;68292;49.600;8.746;2024-02-23T08:07:36;3.37;;;1.47;;
28547;SDS011;68292;49.600;8.746;2024-02-23T08:10:06;2.87;;;1.40;;
28547;SDS011;68292;49.600;8.746;2024-02-23T08:12:36;2.10;;;1.43;;
28547;SDS011;68292;49.600;8.746;2024-02-23T08:15:10;2.30;;;1.30;;
28547;SDS011;68292;49.600;8.746;2024-02-23T08:17:39;2.67;;;1.33;;
28547;SDS011;68292;49.600;8.746;2024-02-23T08:20:08;2.03;;;1.50;;
28547;SDS011;68292;49.600;8.746;2024-02-23T08:22:38;3.53;;;1.20;;
28547;SDS011;68292;49.600;8.746;2024-02-23T08:25:07;3.00;;;1.53;;
28547;SDS011;68292;49.600;8.746;2024-02-23T08:27:40;3.40;;;1.60;;
28547;SDS011;68292;49.600;8.746;2024-02-23T08:30:11;4.20;;;1.77;;
28547;SDS011;68292;49.600;8.746;2024-02-23T08:32:42;3.00;;;1.80;;
28547;SDS011;68292;49.600;8.746;2024-02-23T08:35:12;4.77;;;1.70;;
28547;SDS011;68292;49.600;8.746;2024-02-23T08:37:42;2.87;;;1.20;;
28547;SDS011;68292;49.600;8.746;2024-02-23T08:40:10;2.23;;;1.33;;
28547;SDS011;68292;49.600;8.746;2024-02-23T08:42:39;1.80;;;1.43;;
28547;SDS011;68292;49.600;8.746;2024-02-23T08:45:09;3.07;;;1.60;;
28547;SDS011;68292;49.600;8.746;2024-02-23T08:47:41;5.07;;;1.77;;
28547;SDS011;68292;49.600;8.746;2024-02-23T08:50:10;2.87;;;1.50;;
28547;SDS011;68292;49.600;8.746;2024-02-23T08:52:39;5.53;;;1.67;;
28547;SDS011;68292;49.600;8.746;2024-02-23T08:55:08;3.07;;;1.80;;
28547;SDS011;68292;49.600;8.746;2024-02-23T08:57:38;2.30;;;1.37;;
28547;SDS011;68292;49.600;8.746;2024-02-23T09:00:07;5.37;;;2.00;;
28547;SDS011;68292;49.600;8.746;2024-02-23T09:02:43;3.93;;;1.60;;
28547;SDS011;68292;49.600;8.746;2024-02-23T09:05:12;2.43;;;1.57;;
28547;SDS011;68292;49.600;8.746;2024-02-23T09:07:41;6.13;;;2.30;;
28547;SDS011;68292;49.600;8.746;2024-02-23T09:10:12;3.37;;;2.50;;
28547;SDS011;68292;49.600;8.746;2024-02-23T09:12:40;5.87;;;2.47;;
28547;SDS011;68292;49.600;8.746;2024-02-23T09:15:11;2.93;;;1.90;;
28547;SDS011;68292;49.600;8.746;2024-02-23T09:17:40;2.73;;;2.23;;
28547;SDS011;68292;49.600;8.746;2024-02-23T09:20:10;3.00;;;2.00;;
28547;SDS011;68292;49.600;8.746;2024-02-23T09:22:39;2.90;;;2.50;;
28547;SDS011;68292;49.600;8.746;2024-02-23T09:25:08;6.60;;;3.57;;
28547;SDS011;68292;49.600;8.746;2024-02-23T09:27:37;3.77;;;2.47;;
28547;SDS011;68292;49.600;8.746;2024-02-23T09:30:12;3.43;;;2.50;;
28547;SDS011;68292;49.600;8.746;2024-02-23T09:32:42;5.30;;;3.20;;
28547;SDS011;68292;49.600;8.746;2024-02-23T09:35:12;6.37;;;4.10;;
28547;SDS011;68292;49.600;8.746;2024-02-23T09:37:41;4.30;;;2.90;;
28547;SDS011;68292;49.600;8.746;2024-02-23T09:40:10;4.53;;;2.97;;
28547;SDS011;68292;49.600;8.746;2024-02-23T09:42:41;4.30;;;3.00;;
28547;SDS011;68292;49.600;8.746;2024-02-23T09:45:12;5.93;;;2.43;;
28547;SDS011;68292;49.600;8.746;2024-02-23T09:47:41;3.07;;;2.30;;
28547;SDS011;68292;49.600;8.746;2024-02-23T09:50:11;2.27;;;2.00;;
28547;SDS011;68292;49.600;8.746;2024-02-23T09:52:41;2.83;;;1.57;;
28547;SDS011;68292;49.600;8.746;2024-02-23T09:55:10;3.20;;;1.63;;
28547;SDS011;68292;49.600;8.746;2024-02-23T09:57:38;3.47;;;1.80;;
28547;SDS011;68292;49.600;8.746;2024-02-23T10:00:08;5.43;;;3.10;;
28547;SDS011;68292;49.600;8.746;2024-02-23T10:02:40;5.63;;;3.30;;
28547;SDS011;68292;49.600;8.746;2024-02-23T10:05:10;3.87;;;2.37;;
28547;SDS011;68292;49.600;8.746;2024-02-23T10:07:40;4.03;;;2.87;;
28547;SDS011;68292;49.600;8.746;2024-02-23T10:10:11;3.40;;;2.37;;
28547;SDS011;68292;49.600;8.746;2024-02-23T10:12:39;7.37;;;3.50;;
28547;SDS011;68292;49.600;8.746;2024-02-23T10:15:08;5.57;;;2.90;;
28547;SDS011;68292;49.600;8.746;2024-02-23T10:17:37;6.67;;;3.43;;
28547;SDS011;68292;49.600;8.746;2024-02-23T10:20:08;4.10;;;2.87;;
28547;SDS011;68292;49.600;8.746;2024-02-23T10:22:38;2.97;;;1.97;;
28547;SDS011;68292;49.600;8.746;2024-02-23T10:25:07;3.07;;;1.73;;
28547;SDS011;68292;49.600;8.746;2024-02-23T10:27:36;3.23;;;2.00;;
28547;SDS011;68292;49.600;8.746;2024-02-23T10:30:05;3.07;;;2.00;;
28547;SDS011;68292;49.600;8.746;2024-02-23T10:32:38;2.60;;;1.50;;
28547;SDS011;68292;49.600;8.746;2024-02-23T10:35:09;2.80;;;1.70;;
28547;SDS011;68292;49.600;8.746;2024-02-23T10:37:43;2.57;;;1.60;;
28547;SDS011;68292;49.600;8.746;2024-02-23T10:40:12;4.43;;;1.70;;
28547;SDS011;68292;49.600;8.746;2024-02-23T10:42:41;4.27;;;1.43;;
28547;SDS011;68292;49.600;8.746;2024-02-23T10:45:17;2.23;;;1.23;;
28547;SDS011;68292;49.600;8.746;2024-02-23T10:47:47;2.03;;;1.10;;
28547;SDS011;68292;49.600;8.746;2024-02-23T10:50:18;1.33;;;1.17;;
28547;SDS011;68292;49.600;8.746;2024-02-23T10:52:47;1.40;;;1.00;;
28547;SDS011;68292;49.600;8.746;2024-02-23T10:55:16;2.93;;;1.43;;
28547;SDS011;68292;49.600;8.746;2024-02-23T10:57:48;2.70;;;1.20;;
28547;SDS011;68292;49.600;8.746;2024-02-23T11:00:17;2.90;;;1.40;;
28547;SDS011;68292;49.600;8.746;2024-02-23T11:02:51;1.47;;;1.07;;
28547;SDS011;68292;49.600;8.746;2024-02-23T11:05:24;2.27;;;1.17;;
28547;SDS011;68292;49.600;8.746;2024-02-23T11:07:55;2.27;;;1.40;;
28547;SDS011;68292;49.600;8.746;2024-02-23T11:10:24;2.63;;;1.30;;
28547;SDS011;68292;49.600;8.746;2024-02-23T11:12:58;1.90;;;1.30;;
28547;SDS011;68292;49.600;8.746;2024-02-23T11:15:28;1.63;;;1.10;;
28547;SDS011;68292;49.600;8.746;2024-02-23T11:18:00;2.03;;;1.30;;
28547;SDS011;68292;49.600;8.746;2024-02-23T11:20:35;2.43;;;1.13;;
28547;SDS011;68292;49.600;8.746;2024-02-23T11:23:12;1.90;;;1.20;;
28547;SDS011;68292;49.600;8.746;2024-02-23T11:25:43;2.27;;;1.20;;
28547;SDS011;68292;49.600;8.746;2024-02-23T11:28:26;2.67;;;1.10;;
28547;SDS011;68292;49.600;8.746;2024-02-23T11:30:55;4.80;;;1.20;;
28547;SDS011;68292;49.600;8.746;2024-02-23T11:33:29;5.13;;;1.20;;
28547;SDS011;68292;49.600;8.746;2024-02-23T11:36:07;1.33;;;1.23;;
28547;SDS011;68292;49.600;8.746;2024-02-23T11:38:37;3.07;;;1.33;;
28547;SDS011;68292;49.600;8.746;2024-02-23T11:41:07;1.60;;;1.10;;
28547;SDS011;68292;49.600;8.746;2024-02-23T11:43:37;3.50;;;1.40;;
28547;SDS011;68292;49.600;8.746;2024-02-23T11:46:09;5.13;;;1.80;;
28547;SDS011;68292;49.600;8.746;2024-02-23T11:48:38;5.53;;;2.73;;
28547;SDS011;68292;49.600;8.746;2024-02-23T11:51:09;10.53;;;5.40;;
28547;SDS011;68292;49.600;8.746;2024-02-23T11:53:37;9.83;;;4.90;;
28547;SDS011;68292;49.600;8.746;2024-02-23T11:56:06;10.00;;;5.37;;
28547;SDS011;68292;49.600;8.746;2024-02-23T11:58:35;10.67;;;6.60;;
28547;SDS011;68292;49.600;8.746;2024-02-23T12:01:04;8.23;;;4.30;;
28547;SDS011;68292;49.600;8.746;2024-02-23T12:03:33;6.63;;;4.30;;
28547;SDS011;68292;49.600;8.746;2024-02-23T12:06:04;4.60;;;2.40;;
28547;SDS011;68292;49.600;8.746;2024-02-23T12:08:34;3.23;;;2.07;;
28547;SDS011;68292;49.600;8.746;2024-02-23T12:11:05;2.47;;;2.27;;
28547;SDS011;68292;49.600;8.746;2024-02-23T12:13:36;5.23;;;3.20;;
28547;SDS011;68292;49.600;8.746;2024-02-23T12:16:06;4.10;;;2.83;;
28547;SDS011;68292;49.600;8.746;2024-02-23T12:18:36;3.17;;;1.77;;
28547;SDS011;68292;49.600;8.746;2024-02-23T12:21:05;3.93;;;1.70;;
28547;SDS011;68292;49.600;8.746;2024-02-23T12:23:41;1.63;;;1.37;;
28547;SDS011;68292;49.600;8.746;2024-02-23T12:26:12;2.07;;;1.50;;
28547;SDS011;68292;49.600;8.746;2024-02-23T12:28:42;3.00;;;2.37;;
28547;SDS011;68292;49.600;8.746;2024-02-23T12:31:12;3.50;;;2.57;;
28547;SDS011;68292;49.600;8.746;2024-02-23T12:33:41;4.17;;;2.90;;
28547;SDS011;68292;49.600;8.746;2024-02-23T12:36:15;5.37;;;3.37;;
28547;SDS011;68292;49.600;8.746;2024-02-23T12:38:45;6.97;;;2.53;;
28547;SDS011;68292;49.600;8.746;2024-02-23T12:41:14;4.93;;;4.30;;
28547;SDS011;68292;49.600;8.746;2024-02-23T12:43:42;4.27;;;3.23;;
28547;SDS011;68292;49.600;8.746;2024-02-23T12:46:14;3.17;;;2.17;;
28547;SDS011;68292;49.600;8.746;2024-02-23T12:48:42;4.03;;;2.07;;
28547;SDS011;68292;49.600;8.746;2024-02-23T12:51:11;2.93;;;1.63;;
28547;SDS011;68292;49.600;8.746;2024-02-23T12:53:40;2.60;;;1.83;;
28547;SDS011;68292;49.600;8.746;2024-02-23T12:56:12;3.70;;;2.10;;
28547;SDS011;68292;49.600;8.746;2024-02-23T12:58:43;3.60;;;1.83;;
28547;SDS011;68292;49.600;8.746;2024-02-23T13:01:12;3.37;;;1.47;;
28547;SDS011;68292;49.600;8.746;2024-02-23T13:03:41;4.87;;;1.90;;
28547;SDS011;68292;49.600;8.746;2024-02-23T13:06:10;4.33;;;1.80;;
28547;SDS011;68292;49.600;8.746;2024-02-23T13:08:39;4.20;;;1.60;;
28547;SDS011;68292;49.600;8.746;2024-02-23T13:11:09;2.43;;;1.80;;
28547;SDS011;68292;49.600;8.746;2024-02-23T13:13:39;2.03;;;1.53;;
28547;SDS011;68292;49.600;8.746;2024-02-23T13:16:10;2.03;;;1.60;;
28547;SDS011;68292;49.600;8.746;2024-02-23T13:18:41;1.77;;;1.33;;
28547;SDS011;68292;49.600;8.746;2024-02-23T13:21:13;3.40;;;2.20;;
28547;SDS011;68292;49.600;8.746;2024-02-23T13:23:42;2.20;;;1.57;;
28547;SDS011;68292;49.600;8.746;2024-02-23T13:26:11;1.73;;;1.50;;
28547;SDS011;68292;49.600;8.746;2024-02-23T13:28:43;2.90;;;1.40;;
28547;SDS011;68292;49.600;8.746;2024-02-23T13:31:11;3.53;;;1.30;;
28547;SDS011;68292;49.600;8.746;2024-02-23T13:33:42;4.30;;;1.47;;
28547;SDS011;68292;49.600;8.746;2024-02-23T13:36:12;5.93;;;1.90;;
28547;SDS011;68292;49.600;8.746;2024-02-23T13:38:40;1.70;;;1.43;;
28547;SDS011;68292;49.600;8.746;2024-02-23T13:41:09;2.70;;;1.60;;
28547;SDS011;68292;49.600;8.746;2024-02-23T13:43:39;2.50;;;1.80;;
28547;SDS011;68292;49.600;8.746;2024-02-23T13:46:09;2.27;;;1.47;;
28547;SDS011;68292;49.600;8.746;2024-02-23T13:48:38;3.47;;;1.87;;
28547;SDS011;68292;49.600;8.746;2024-02-23T13:51:07;2.87;;;2.00;;
28547;SDS011;68292;49.600;8.746;2024-02-23T13:53:35;2.90;;;1.90;;
28547;SDS011;68292;49.600;8.746;2024-02-23T13:56:04;3.20;;;2.07;;
28547;SDS011;68292;49.600;8.746;2024-02-23T13:58:34;5.80;;;2.10;;
28547;SDS011;68292;49.600;8.746;2024-02-23T14:01:02;4.23;;;1.90;;
28547;SDS011;68292;49.600;8.746;2024-02-23T14:03:33;3.17;;;2.73;;
28547;SDS011;68292;49.600;8.746;2024-02-23T14:06:02;3.27;;;2.43;;
28547;SDS011;68292;49.600;8.746;2024-02-23T14:08:31;2.50;;;1.80;;
28547;SDS011;68292;49.600;8.746;2024-02-23T14:11:01;4.60;;;2.10;;
28547;SDS011;68292;49.600;8.746;2024-02-23T14:13:32;6.80;;;2.10;;
28547;SDS011;68292;49.600;8.746;2024-02-23T14:16:01;2.37;;;1.70;;
28547;SDS011;68292;49.600;8.746;2024-02-23T14:18:33;1.77;;;1.63;;
28547;SDS011;68292;49.600;8.746;2024-02-23T14:21:04;3.13;;;2.60;;
28547;SDS011;68292;49.600;8.746;2024-02-23T14:23:33;4.77;;;3.10;;
28547;SDS011;68292;49.600;8.746;2024-02-23T14:26:02;3.13;;;2.40;;
28547;SDS011;68292;49.600;8.746;2024-02-23T14:28:31;2.30;;;1.90;;
28547;SDS011;68292;49.600;8.746;2024-02-23T14:31:00;2.37;;;1.90;;
28547;SDS011;68292;49.600;8.746;2024-02-23T14:33:29;4.07;;;1.73;;
28547;SDS011;68292;49.600;8.746;2024-02-23T14:35:59;1.97;;;1.40;;
28547;SDS011;68292;49.600;8.746;2024-02-23T14:38:27;2.60;;;1.20;;
28547;SDS011;68292;49.600;8.746;2024-02-23T14:40:56;1.87;;;1.20;;
28547;SDS011;68292;49.600;8.746;2024-02-23T14:43:26;2.67;;;1.60;;
28547;SDS011;68292;49.600;8.746;2024-02-23T14:45:57;2.43;;;1.70;;
28547;SDS011;68292;49.600;8.746;2024-02-23T14:48:26;2.43;;;1.80;;
28547;SDS011;68292;49.600;8.746;2024-02-23T14:50:54;2.23;;;1.43;;
28547;SDS011;68292;49.600;8.746;2024-02-23T14:53:25;1.90;;;1.43;;
28547;SDS011;68292;49.600;8.746;2024-02-23T14:55:55;3.50;;;1.30;;
28547;SDS011;68292;49.600;8.746;2024-02-23T14:58:24;2.07;;;1.30;;
28547;SDS011;68292;49.600;8.746;2024-02-23T15:00:52;2.10;;;1.37;;
28547;SDS011;68292;49.600;8.746;2024-02-23T15:03:21;3.83;;;1.70;;